NEODyS-2

Near Earth Objects - Dynamic Site
NEODyS ∴ Observatories ∴ Site 691 ∴ Obs & residuals
Contact »
691  ▹ 
OBSERVATIONS AND RESIDUALS

691-Steward Observatory, Kitt Peak-Spacewatch

Detections | Residuals | Detections & Residuals

[1-200] [201-400] [401-600] [601-800] [801-1000] [1001-1200] [1201-1400] [1401-1600] [1601-1800] [1801-2000] [2001-2200] [2201-2400] [2401-2600] [2601-2800] [2801-3000] [3001-3200] [3201-3400] [3401-3600] [3601-3800] [3801-4000] [4001-4200] [4201-4400] [4401-4600] [4601-4800] [4801-5000] [5001-5200] [5201-5400] [5401-5600] [5601-5800] [5801-6000] [6001-6200] [6201-6400] [6401-6600] [6601-6800] [6801-7000] [7001-7200] [7201-7400] [7401-7600] [7601-7800] [7801-8000] [8001-8200] [8201-8400] [8401-8600] [8601-8800] [8801-9000] [9001-9200] [9201-9400] [9401-9600] [9601-9800] [9801-10000] [10001-10200] [10201-10400] [10401-10600] [10601-10800] [10801-11000] [11001-11200] [11201-11400] [11401-11600] [11601-11800] [11801-12000] [12001-12200] [12201-12400] [12401-12600] [12601-12800] [12801-13000] [13001-13200] [13201-13400] [13401-13600] [13601-13800] [13801-14000] [14001-14200] [14201-14400] [14401-14600] [14601-14800] [14801-15000] [15001-15200] [15201-15400] [15401-15600] [15601-15800] [15801-16000] [16001-16200] [16201-16400] [16401-16600] [16601-16800] [16801-17000] [17001-17200] [17201-17400] [17401-17600] [17601-17800] [17801-18000] [18001-18200] [18201-18400] [18401-18600] [18601-18800] [18801-19000] [19001-19200] [19201-19400] [19401-19600] [19601-19800] [19801-20000] [20001-20200] [20201-20400] [20401-20600] [20601-20800] [20801-21000] [21001-21200] [21201-21400] [21401-21600] [21601-21800] [21801-22000] [22001-22200] [22201-22400] [22401-22600] [22601-22800] [22801-23000] [23001-23200] [23201-23400] [23401-23600] [23601-23800] [23801-24000] [24001-24200] [24201-24400] [24401-24600] [24601-24800] [24801-25000] [25001-25200] [25201-25400] [25401-25600] [25601-25800] [25801-26000] [26001-26200] [26201-26400] [26401-26600] [26601-26800] [26801-27000] [27001-27200] [27201-27400] [27401-27600] [27601-27800] [27801-28000] [28001-28200] [28201-28400] [28401-28600] [28601-28800] [28801-29000] [29001-29200] [29201-29400] [29401-29600] [29601-29800] [29801-30000] [30001-30200] [30201-30400] [30401-30600] [30601-30800] [30801-31000] [31001-31200] [31201-31400] [31401-31600] [31601-31800] [31801-32000] [32001-32200] [32201-32400] [32401-32600] [32601-32800] [32801-33000] [33001-33200] [33201-33400] [33401-33600] [33601-33800] [33801-34000] [34001-34200] [34201-34400] [34401-34600] [34601-34800] [34801-35000] [35001-35200] [35201-35400] [35401-35600] [35601-35800] [35801-36000] [36001-36200] [36201-36400] [36401-36600] [36601-36800] [36801-37000] [37001-37200] [37201-37400] [37401-37600] [37601-37800] [37801-38000] [38001-38200] [38201-38400] [38401-38600] [38601-38800] [38801-39000] [39001-39200] [39201-39400] [39401-39600] [39601-39800] [39801-40000] [40001-40200] [40201-40400] [40401-40600] [40601-40800] [40801-41000] [41001-41200] [41201-41400] [41401-41600] [41601-41800] [41801-42000] [42001-42200] [42201-42400] [42401-42600] [42601-42800] [42801-43000] [43001-43200] [43201-43400] [43401-43600] [43601-43800] [43801-44000] [44001-44200] [44201-44400] [44401-44600] [44601-44800] [44801-45000] [45001-45200] [45201-45400] [45401-45600] [45601-45800] [45801-46000] [46001-46200] [46201-46400] [46401-46600] [46601-46800] [46801-47000] [47001-47200] [47201-47400] [47401-47600] [47601-47800] [47801-48000] [48001-48200] [48201-48400] [48401-48600] [48601-48800] [48801-49000] [49001-49200] [49201-49400] [49401-49600] [49601-49800] [49801-50000] [50001-50200] [50201-50388]

Designation T Tech N Date Right Ascension Declination Apparent Magnitude Star Catalog Site code χ Used A Used M
yr-mo-day precision hr:min:sec precision rms F bias residual deg min sec precision rms F bias residual mag/col rms residual
2011VQ5 O C 2014-10-15.26311 1.000E-05 02:36:47.870 1.500E-01 0.500 F -0.266 -0.252 +15° 07' 50.70" 1.000E-01 0.500 F 0.196 0.092 21.1 V 0.70 -0.20 o 691 0.54 Yes Yes
1998GL10 O C 2014-10-15.35562 1.000E-05 03:47:55.510 1.500E-01 0.500 F -0.257 -0.012 +11° 56' 06.40" 1.000E-01 0.500 F 0.219 -0.201 20.4 V 0.70 -0.05 o 691 0.40 Yes Yes
1996MO O C 2014-10-15.36083 1.000E-05 03:37:20.240 1.500E-01 0.500 F -0.312 -0.056 +10° 07' 36.10" 1.000E-01 0.500 F 0.245 0.405 20.8 V 0.70 -0.16 o 691 0.82 Yes Yes
1998GL10 O C 2014-10-15.37601 1.000E-05 03:47:56.410 1.500E-01 0.500 F -0.257 0.026 +11° 55' 50.70" 1.000E-01 0.500 F 0.219 -0.230 20.6 V 0.70 0.15 o 691 0.46 Yes Yes
1996MO O C 2014-10-15.38122 1.000E-05 03:37:19.380 1.500E-01 0.500 F -0.312 -0.388 +10° 07' 25.00" 1.000E-01 0.500 F 0.245 0.067 21.0 V 0.70 0.05 o 691 0.79 Yes Yes
1998GL10 O C 2014-10-15.39639 1.000E-05 03:47:57.270 1.500E-01 0.500 F -0.257 -0.481 +11° 55' 35.20" 1.000E-01 0.500 F 0.219 -0.020 20.4 V 0.70 -0.05 o 691 0.97 Yes Yes
1996MO O C 2014-10-15.40161 1.000E-05 03:37:18.530 1.500E-01 0.500 F -0.312 -0.546 +10° 07' 13.60" 1.000E-01 0.500 F 0.245 -0.546 21.1 V 0.70 0.15 o 691 1.55 Yes Yes
1990UO O C 2014-10-16.22147 1.000E-05 02:31:22.160 1.500E-01 0.500 F -0.126 -1.049 +10° 03' 24.40" 1.000E-01 0.500 F 0.214 -1.017 20.0 V 0.70 0.19 o 691 2.96 Yes Yes
1990UO O C 2014-10-16.24184 1.000E-05 02:31:18.900 1.500E-01 0.500 F -0.126 -0.193 +10° 02' 30.20" 1.000E-01 0.500 F 0.214 -0.843 19.9 V 0.70 0.09 o 691 1.75 Yes Yes
1990UO O C 2014-10-16.26219 1.000E-05 02:31:15.560 1.500E-01 0.500 F -0.126 -0.382 +10° 01' 36.50" 1.000E-01 0.500 F 0.214 -0.141 20.1 V 0.70 0.29 o 691 0.83 Yes Yes
2006QY110 O C 2014-10-16.47092 1.000E-05 09:38:11.870 1.500E-01 0.500 F 0.079 0.240 +11° 51' 09.50" 1.000E-01 0.500 F 0.219 -0.261 19.9 V 0.70 0.41 o 691 0.71 Yes Yes
2006QY110 O C 2014-10-16.48365 1.000E-05 09:38:15.880 1.500E-01 0.500 F 0.079 -0.393 +11° 50' 38.40" 1.000E-01 0.500 F 0.219 0.228 20.2 V 0.70 0.71 o 691 0.91 Yes Yes
2006QY110 O C 2014-10-16.49636 1.000E-05 09:38:19.940 1.500E-01 0.500 F 0.079 -0.106 +11° 50' 06.30" 1.000E-01 0.500 F 0.219 -0.328 19.7 V 0.70 0.21 o 691 0.69 Yes Yes
2012SZ49 O C H 2014-10-17.20697 1.000E-05 02:43:49.230 1.500E-01 0.500 F -0.328 -0.497 +20° 54' 03.10" 1.000E-01 0.500 F 0.294 0.253 21.0 V 0.70 0.25 o 691 1.14 Yes Yes
2012SZ49 O C H 2014-10-17.24785 1.000E-05 02:43:44.080 1.500E-01 0.500 F -0.328 0.210 +20° 54' 49.40" 1.000E-01 0.500 F 0.294 -0.047 21.0 V 0.70 0.25 o 691 0.44 Yes Yes
2014SS1 O C 2014-10-17.25425 1.000E-05 02:48:25.210 1.500E-01 0.500 F -0.301 -0.211 +21° 32' 00.20" 1.000E-01 0.500 F 0.324 0.172 19.2 V 0.70 0.15 o 691 0.55 Yes Yes
2014SS1 O C 2014-10-17.27470 1.000E-05 02:48:24.520 1.500E-01 0.500 F -0.301 -0.191 +21° 32' 01.50" 1.000E-01 0.500 F 0.324 -0.068 19.2 V 0.70 0.15 o 691 0.41 Yes Yes
2014SS1 O C 2014-10-17.29515 1.000E-05 02:48:23.820 1.500E-01 0.500 F -0.301 0.078 +21° 32' 03.40" 1.000E-01 0.500 F 0.324 0.555 19.1 V 0.70 0.05 o 691 1.13 Yes Yes
2014HE3 O C 2014-10-18.14867 1.000E-05 02:36:42.700 1.500E-01 0.500 F -0.387 -0.070 +18° 08' 50.00" 1.000E-01 0.500 F 0.274 0.122 19.6 V 0.70 0.26 o 691 0.28 Yes Yes
2014HE3 O C 2014-10-18.16902 1.000E-05 02:36:39.640 1.500E-01 0.500 F -0.387 -0.064 +18° 08' 54.20" 1.000E-01 0.500 F 0.274 0.152 19.4 V 0.70 0.06 o 691 0.33 Yes Yes
2014HE3 O C 2014-10-18.18941 1.000E-05 02:36:36.510 1.500E-01 0.500 F -0.387 -0.702 +18° 08' 57.80" 1.000E-01 0.500 F 0.274 -0.369 19.5 V 0.70 0.16 o 691 1.59 Yes Yes
1996MO O C 2014-10-19.24830 1.000E-05 03:34:31.800 1.500E-01 0.500 F -0.200 -0.748 +09° 31' 51.40" 1.000E-01 0.500 F 0.232 -0.237 20.5 V 0.70 -0.28 o 691 1.57 Yes Yes
1996MO O C 2014-10-19.26865 1.000E-05 03:34:30.790 1.500E-01 0.500 F -0.200 -0.382 +09° 31' 40.10" 1.000E-01 0.500 F 0.232 0.033 20.6 V 0.70 -0.18 o 691 0.77 Yes Yes
1996MO O C 2014-10-19.28903 1.000E-05 03:34:29.650 1.500E-01 0.500 F -0.200 -1.821 +09° 31' 27.80" 1.000E-01 0.500 F 0.232 -0.661 20.5 V 0.70 -0.28 o 691 3.87 No Yes
Mithra O C 2014-10-20.42563 1.000E-05 04:33:24.220 1.500E-01 0.500 F -0.152 -0.206 +20° 20' 47.20" 1.000E-01 0.500 F 0.242 -0.020 21.5 V 0.70 0.42 o 691 0.42 Yes Yes
Mithra O C 2014-10-20.44342 1.000E-05 04:33:23.440 1.500E-01 0.500 F -0.152 -0.233 +20° 20' 45.60" 1.000E-01 0.500 F 0.242 -0.017 21.5 V 0.70 0.42 o 691 0.47 Yes Yes
Mithra O C 2014-10-20.46120 1.000E-05 04:33:22.670 1.500E-01 0.500 F -0.152 -0.125 +20° 20' 44.00" 1.000E-01 0.500 F 0.242 -0.001 21.5 V 0.70 0.42 o 691 0.25 Yes Yes
2014SC324 O C 2014-10-21.09642 1.000E-05 00:20:45.610 1.500E-01 0.500 F -0.148 -0.046 +07° 07' 46.20" 1.000E-01 0.500 F 0.321 -0.075 17.5 V 0.70 0.55 o 691 0.18 Yes Yes
2014SC324 O C 2014-10-21.11493 1.000E-05 00:20:55.550 1.500E-01 0.500 F -0.148 -0.045 +07° 08' 35.10" 1.000E-01 0.500 F 0.321 0.088 17.0 V 0.70 0.06 o 691 0.20 Yes Yes
2014SC324 O C 2014-10-21.14220 1.000E-05 00:21:09.940 1.500E-01 0.500 F -0.148 -0.412 +07° 09' 46.70" 1.000E-01 0.500 F 0.321 -0.218 17.4 V 0.70 0.48 o 691 0.94 Yes Yes
2014SS1 O C 2014-10-21.20372 1.000E-05 02:47:06.940 1.500E-01 0.500 F -0.301 -0.238 +21° 29' 54.60" 1.000E-01 0.500 F 0.324 -0.058 19.4 V 0.70 0.19 o 691 0.49 Yes Yes
1999VT25 O C H 2014-10-21.22134 1.000E-05 03:10:36.440 1.500E-01 0.500 F -0.181 0.891 +19° 32' 36.90" 1.000E-01 0.500 F 0.255 -0.598 o 691 2.15 Yes No
2014SS1 O C 2014-10-21.22406 1.000E-05 02:47:06.210 1.500E-01 0.500 F -0.301 -0.169 +21° 29' 54.40" 1.000E-01 0.500 F 0.324 -0.195 19.3 V 0.70 0.08 o 691 0.52 Yes Yes
1999VT25 O C H 2014-10-21.24168 1.000E-05 03:10:34.040 1.500E-01 0.500 F -0.181 0.581 +19° 32' 22.80" 1.000E-01 0.500 F 0.255 0.006 o 691 1.16 Yes No
2014SS1 O C 2014-10-21.24441 1.000E-05 02:47:05.440 1.500E-01 0.500 F -0.301 -0.178 +21° 29' 54.30" 1.000E-01 0.500 F 0.324 -0.038 19.3 V 0.70 0.08 o 691 0.37 Yes Yes
1997VM4 O C 2014-10-21.28046 1.000E-05 03:32:47.010 1.500E-01 0.500 F -0.351 -0.245 +16° 28' 41.50" 1.000E-01 0.500 F 0.148 -0.114 20.4 V 0.70 0.13 o 691 0.54 Yes Yes
1997VM4 O C 2014-10-21.30074 1.000E-05 03:32:45.440 1.500E-01 0.500 F -0.351 -0.228 +16° 28' 44.00" 1.000E-01 0.500 F 0.148 -0.136 20.3 V 0.70 0.03 o 691 0.53 Yes Yes
1997VM4 O C 2014-10-21.32103 1.000E-05 03:32:43.860 1.500E-01 0.500 F -0.351 -0.255 +16° 28' 46.60" 1.000E-01 0.500 F 0.148 -0.024 20.4 V 0.70 0.13 o 691 0.52 Yes Yes
2001SF286 O C 2014-10-21.39571 1.000E-05 04:25:27.830 1.500E-01 0.500 F -0.163 -0.311 +26° 35' 51.60" 1.000E-01 0.500 F 0.349 -0.301 21.2 V 0.70 0.09 o 691 0.87 Yes Yes
2011UP91 O C H 2014-10-21.40068 1.000E-05 04:44:08.270 1.500E-01 0.500 F -0.159 -0.661 +25° 58' 14.70" 1.000E-01 0.500 F 0.283 -0.984 21.2 V 0.70 -0.08 o 691 2.57 Yes Yes
2001SF286 O C 2014-10-21.41626 1.000E-05 04:25:25.100 1.500E-01 0.500 F -0.163 -0.169 +26° 35' 30.10" 1.000E-01 0.500 F 0.349 0.087 21.1 V 0.70 -0.01 o 691 0.38 Yes Yes
2001SF286 O C 2014-10-21.43882 1.000E-05 04:25:22.080 1.500E-01 0.500 F -0.163 -0.307 +26° 35' 06.20" 1.000E-01 0.500 F 0.349 0.298 21.0 V 0.70 -0.11 o 691 0.86 Yes Yes
2011UP91 O C H 2014-10-21.44442 1.000E-05 04:44:17.880 1.500E-01 0.500 F -0.159 0.238 +25° 59' 45.50" 1.000E-01 0.500 F 0.283 -0.031 21.5 V 0.70 0.22 o 691 0.53 Yes Yes
Ivar O C 2014-10-21.46663 1.000E-05 09:37:44.500 1.500E-01 0.500 F -0.009 -0.219 +12° 36' 10.40" 1.000E-01 0.500 F 0.244 -0.040 18.1 V 0.70 0.05 o 691 0.45 Yes Yes
2000WO107 O C H 2014-10-21.48035 1.000E-05 09:39:38.580 1.500E-01 0.500 F -0.009 -0.096 +13° 02' 16.40" 1.000E-01 0.500 F 0.244 -0.297 21.0 V 0.70 0.23 o 691 0.62 Yes Yes
Ivar O C 2014-10-21.48035 1.000E-05 09:37:45.460 1.500E-01 0.500 F -0.009 -0.108 +12° 36' 06.50" 1.000E-01 0.500 F 0.244 -0.074 18.1 V 0.70 0.05 o 691 0.26 Yes Yes
2000WO107 O C H 2014-10-21.49402 1.000E-05 09:39:37.390 1.500E-01 0.500 F -0.009 -0.347 +13° 02' 29.20" 1.000E-01 0.500 F 0.244 0.215 20.9 V 0.70 0.13 o 691 0.82 Yes Yes
Ivar O C 2014-10-21.49402 1.000E-05 09:37:46.400 1.500E-01 0.500 F -0.009 -0.221 +12° 36' 02.70" 1.000E-01 0.500 F 0.244 -0.019 18.2 V 0.70 0.15 o 691 0.44 Yes Yes
2014UG57 O C 2014-10-22.16760 1.000E-05 01:47:32.740 1.500E-01 0.500 F -0.124 -0.143 +09° 08' 48.40" 1.000E-01 0.500 F 0.288 -0.422 20.5 V 0.70 0.53 o 691 0.90 Yes Yes
2014UG57 O C 2014-10-22.18788 1.000E-05 01:47:30.120 1.500E-01 0.500 F -0.124 -0.578 +09° 09' 46.00" 1.000E-01 0.500 F 0.288 -0.193 20.4 V 0.70 0.43 o 691 1.23 Yes Yes
2014UG57 O C 2014-10-22.20818 1.000E-05 01:47:27.530 1.500E-01 0.500 F -0.124 -0.109 +09° 10' 43.90" 1.000E-01 0.500 F 0.288 0.299 20.4 V 0.70 0.43 o 691 0.64 Yes Yes
1999VT25 O C 2014-10-22.22705 1.000E-05 03:08:40.310 1.500E-01 0.500 F -0.181 0.283 +19° 19' 48.10" 1.000E-01 0.500 F 0.255 0.255 21.2 V 0.70 -0.18 o 691 0.76 Yes Yes
2014UQ33 O C 2014-10-22.23719 1.000E-05 03:03:03.450 1.500E-01 0.500 F -0.194 -0.085 +16° 54' 08.10" 1.000E-01 0.500 F 0.245 0.230 21.5 V 0.70 0.04 o 691 0.52 Yes Yes
1999VT25 O C 2014-10-22.24731 1.000E-05 03:08:37.760 1.500E-01 0.500 F -0.181 -0.489 +19° 19' 32.70" 1.000E-01 0.500 F 0.255 0.382 20.8 V 0.70 -0.58 o 691 1.25 Yes Yes
2014UQ33 O C 2014-10-22.25745 1.000E-05 03:03:03.820 1.500E-01 0.500 F -0.194 -0.434 +16° 53' 36.30" 1.000E-01 0.500 F 0.245 0.435 21.1 V 0.70 -0.36 o 691 1.29 Yes Yes
1999VT25 O C 2014-10-22.26759 1.000E-05 03:08:35.260 1.500E-01 0.500 F -0.181 -0.331 +19° 19' 16.60" 1.000E-01 0.500 F 0.255 -0.097 21.1 V 0.70 -0.28 o 691 0.69 Yes Yes
2014UQ33 O C 2014-10-22.27772 1.000E-05 03:03:04.180 1.500E-01 0.500 F -0.194 -0.547 +16° 53' 03.20" 1.000E-01 0.500 F 0.245 -0.514 21.8 V 0.70 0.34 o 691 1.58 Yes Yes
2014HE3 O C 2014-10-23.15921 1.000E-05 02:25:20.070 1.500E-01 0.500 F -0.294 -0.424 +18° 17' 46.10" 1.000E-01 0.500 F 0.232 0.073 19.5 V 0.70 0.07 o 691 0.86 Yes Yes
2014HE3 O C 2014-10-23.17949 1.000E-05 02:25:17.450 1.500E-01 0.500 F -0.294 -0.262 +18° 17' 47.60" 1.000E-01 0.500 F 0.232 -0.073 19.4 V 0.70 -0.03 o 691 0.55 Yes Yes
2014HE3 O C 2014-10-23.19978 1.000E-05 02:25:14.810 1.500E-01 0.500 F -0.294 -0.163 +18° 17' 49.10" 1.000E-01 0.500 F 0.232 -0.155 19.3 V 0.70 -0.14 o 691 0.45 Yes Yes
2014TM34 O C 2014-10-23.23824 1.000E-05 03:17:48.220 1.500E-01 0.500 F -0.282 -0.263 +13° 08' 09.00" 1.000E-01 0.500 F 0.338 0.060 20.9 V 0.70 0.38 o 691 0.58 Yes Yes
2014TM34 O C 2014-10-23.25854 1.000E-05 03:17:51.960 1.500E-01 0.500 F -0.282 -0.069 +13° 08' 04.60" 1.000E-01 0.500 F 0.338 -0.021 20.7 V 0.70 0.18 o 691 0.15 Yes Yes
2014TM34 O C 2014-10-23.27882 1.000E-05 03:17:55.600 1.500E-01 0.500 F -0.282 -0.194 +13° 07' 59.90" 1.000E-01 0.500 F 0.338 -0.119 20.5 V 0.70 -0.02 o 691 0.48 Yes Yes
1990TG1 O C 2014-10-24.37541 1.000E-05 04:17:43.810 1.500E-01 0.500 F -0.160 -0.222 +15° 20' 24.70" 1.000E-01 0.500 F 0.281 -0.225 20.6 V 0.70 -0.28 o 691 0.63 Yes Yes
1990TG1 O C 2014-10-24.39572 1.000E-05 04:17:42.940 1.500E-01 0.500 F -0.160 -0.498 +15° 20' 20.50" 1.000E-01 0.500 F 0.281 -0.309 20.8 V 0.70 -0.08 o 691 1.17 Yes Yes
1990TG1 O C 2014-10-24.41347 1.000E-05 04:17:42.230 1.500E-01 0.500 F -0.160 -0.005 +15° 20' 16.90" 1.000E-01 0.500 F 0.281 -0.304 21.1 V 0.70 0.22 o 691 0.61 Yes Yes
2014SS1 O C 2014-10-25.23177 1.000E-05 02:45:24.810 1.500E-01 0.500 F -0.328 -0.033 +21° 22' 42.80" 1.000E-01 0.500 F 0.294 0.011 19.5 V 0.70 0.13 o 691 0.07 Yes Yes
2014SS1 O C 2014-10-25.25264 1.000E-05 02:45:23.950 1.500E-01 0.500 F -0.328 -0.139 +21° 22' 40.50" 1.000E-01 0.500 F 0.294 -0.370 19.5 V 0.70 0.13 o 691 0.79 Yes Yes
2014SS1 O C 2014-10-25.27300 1.000E-05 02:45:23.100 1.500E-01 0.500 F -0.328 -0.100 +21° 22' 38.90" 1.000E-01 0.500 F 0.294 0.109 19.4 V 0.70 0.03 o 691 0.30 Yes Yes
1990TG1 O C 2014-10-25.36304 1.000E-05 04:17:02.980 1.500E-01 0.500 F -0.160 -0.222 +15° 17' 03.20" 1.000E-01 0.500 F 0.281 -0.446 21.1 V 0.70 0.23 o 691 1.00 Yes Yes
1990TG1 O C 2014-10-25.38338 1.000E-05 04:17:02.100 1.500E-01 0.500 F -0.160 -0.354 +15° 16' 59.70" 1.000E-01 0.500 F 0.281 0.207 20.7 V 0.70 -0.17 o 691 0.82 Yes Yes
1990TG1 O C 2014-10-25.40369 1.000E-05 04:17:01.240 1.500E-01 0.500 F -0.160 -0.207 +15° 16' 55.40" 1.000E-01 0.500 F 0.281 0.065 20.8 V 0.70 -0.06 o 691 0.43 Yes Yes
1990TG1 O C 2014-10-28.31217 1.000E-05 04:14:55.780 1.500E-01 0.500 F -0.169 -0.559 +15° 06' 52.60" 1.000E-01 0.500 F 0.207 -0.065 20.7 V 0.70 -0.12 o 691 1.13 Yes Yes
1990TG1 O C 2014-10-28.33253 1.000E-05 04:14:54.850 1.500E-01 0.500 F -0.169 -0.650 +15° 06' 48.40" 1.000E-01 0.500 F 0.207 -0.030 20.8 V 0.70 -0.02 o 691 1.30 Yes Yes
1990TG1 O C 2014-10-28.35030 1.000E-05 04:14:54.080 1.500E-01 0.500 F -0.169 -0.111 +15° 06' 44.70" 1.000E-01 0.500 F 0.207 -0.026 20.7 V 0.70 -0.12 o 691 0.23 Yes Yes
1991JG1 O C 2014-10-28.37762 1.000E-05 04:17:44.520 1.500E-01 0.500 F -0.216 -0.027 +20° 54' 43.30" 1.000E-01 0.500 F 0.234 -0.113 19.3 V 0.70 -0.04 o 691 0.23 Yes Yes
Mithra O C 2014-10-28.38011 1.000E-05 04:27:05.960 1.500E-01 0.500 F -0.244 -0.795 +20° 07' 19.00" 1.000E-01 0.500 F 0.230 -0.540 20.5 V 0.70 -0.46 o 691 1.92 Yes Yes
1991JG1 O C 2014-10-28.40157 1.000E-05 04:17:42.640 1.500E-01 0.500 F -0.216 -0.099 +20° 53' 41.00" 1.000E-01 0.500 F 0.234 -0.111 19.4 V 0.70 0.06 o 691 0.30 Yes Yes
Mithra O C 2014-10-28.40406 1.000E-05 04:27:04.720 1.500E-01 0.500 F -0.244 -0.173 +20° 07' 16.50" 1.000E-01 0.500 F 0.230 -0.322 20.8 V 0.70 -0.16 o 691 0.73 Yes Yes
1991JG1 O C 2014-10-28.42200 1.000E-05 04:17:41.080 1.500E-01 0.500 F -0.216 0.459 +20° 52' 47.60" 1.000E-01 0.500 F 0.234 -0.258 20.2 V 0.70 0.86 o 691 1.06 Yes Yes
Mithra O C 2014-10-28.42449 1.000E-05 04:27:03.650 1.500E-01 0.500 F -0.244 0.188 +20° 07' 14.20" 1.000E-01 0.500 F 0.230 -0.285 20.9 V 0.70 -0.06 o 691 0.68 Yes Yes
2014UM175 O C 2014-10-29.16986 1.000E-05 02:25:42.860 1.500E-01 0.500 F -0.198 0.056 +21° 56' 31.10" 1.000E-01 0.500 F 0.297 -0.959 19.7 V 0.70 0.08 o 691 2.03 Yes Yes
2014UM175 O C 2014-10-29.19029 1.000E-05 02:25:46.820 1.500E-01 0.500 F -0.260 -0.327 +21° 53' 52.00" 1.000E-01 0.500 F 0.246 0.330 19.8 V 0.70 0.18 o 691 0.99 Yes Yes
2014UM175 O C 2014-10-29.21073 1.000E-05 02:25:50.770 1.500E-01 0.500 F -0.260 -0.049 +21° 51' 11.20" 1.000E-01 0.500 F 0.246 0.009 19.7 V 0.70 0.08 o 691 0.10 Yes Yes
2014SS1 O C 2014-10-29.23009 1.000E-05 02:43:37.270 1.500E-01 0.500 F -0.328 -0.370 +21° 12' 04.70" 1.000E-01 0.500 F 0.294 -0.003 o 691 0.74 Yes No
2014SS1 O C 2014-10-29.25053 1.000E-05 02:43:36.460 1.500E-01 0.500 F -0.328 -0.292 +21° 12' 01.70" 1.000E-01 0.500 F 0.294 -0.113 o 691 0.63 Yes No
2014SS1 O C 2014-10-29.27096 1.000E-05 02:43:35.640 1.500E-01 0.500 F -0.328 -0.130 +21° 11' 58.70" 1.000E-01 0.500 F 0.294 -0.037 o 691 0.27 Yes No
2014UA192 O C 2014-10-29.29204 1.000E-05 03:13:37.120 1.500E-01 0.500 F -0.224 -0.433 +17° 33' 16.70" 1.000E-01 0.500 F 0.200 -0.245 21.0 V 0.70 -0.34 o 691 1.00 Yes Yes
2014UA192 O C 2014-10-29.31243 1.000E-05 03:13:35.310 1.500E-01 0.500 F -0.224 -0.016 +17° 33' 15.20" 1.000E-01 0.500 F 0.200 -0.321 20.9 V 0.70 -0.44 o 691 0.64 Yes Yes
2014UA192 O C 2014-10-29.33278 1.000E-05 03:13:33.450 1.500E-01 0.500 F -0.224 -0.340 +17° 33' 14.00" 1.000E-01 0.500 F 0.200 -0.058 21.2 V 0.70 -0.14 o 691 0.70 Yes Yes
2014TM34 O C 2014-10-30.29971 1.000E-05 03:34:49.520 1.500E-01 0.500 F -0.431 -0.354 +12° 40' 24.50" 1.000E-01 0.500 F 0.152 -0.111 o 691 0.80 Yes No
2014TM34 O C 2014-10-30.32009 1.000E-05 03:34:50.840 1.500E-01 0.500 F -0.431 0.035 +12° 40' 21.60" 1.000E-01 0.500 F 0.152 -0.038 o 691 0.11 Yes No
2014TM34 O C 2014-10-30.34046 1.000E-05 03:34:52.120 1.500E-01 0.500 F -0.431 0.133 +12° 40' 18.50" 1.000E-01 0.500 F 0.152 0.076 o 691 0.33 Yes No
1990TG1 O C 2014-10-30.35201 1.000E-05 04:13:23.390 1.500E-01 0.500 F -0.169 -0.433 +14° 59' 42.30" 1.000E-01 0.500 F 0.207 -0.121 o 691 0.90 Yes No
1990TG1 O C 2014-10-30.37243 1.000E-05 04:13:22.460 1.500E-01 0.500 F -0.169 0.035 +14° 59' 38.20" 1.000E-01 0.500 F 0.207 0.107 o 691 0.23 Yes No
1990TG1 O C 2014-10-30.39283 1.000E-05 04:13:21.470 1.500E-01 0.500 F -0.169 -0.374 +14° 59' 34.00" 1.000E-01 0.500 F 0.207 0.242 o 691 0.89 Yes No
1998NU O C 2014-10-31.09712 1.000E-05 01:35:02.200 1.500E-01 0.500 F -0.412 -0.026 +14° 45' 23.20" 1.000E-01 0.500 F 0.290 0.027 o 691 0.07 Yes No
1998NU O C 2014-10-31.13226 1.000E-05 01:34:59.720 1.500E-01 0.500 F -0.412 -0.043 +14° 45' 09.00" 1.000E-01 0.500 F 0.290 -0.058 o 691 0.14 Yes No
1998NU O C 2014-10-31.15259 1.000E-05 01:34:58.330 1.500E-01 0.500 F -0.412 0.673 +14° 45' 00.80" 1.000E-01 0.500 F 0.290 -0.074 o 691 1.36 Yes No
2014UM175 O C 2014-10-31.17361 1.000E-05 02:32:11.720 1.500E-01 0.500 F -0.361 -0.150 +17° 50' 35.70" 1.000E-01 0.500 F 0.295 -0.065 o 691 0.33 Yes No
2011VQ5 O C 2014-10-31.17881 1.000E-05 02:17:01.850 1.500E-01 0.500 F -0.338 0.013 +16° 14' 43.80" 1.000E-01 0.500 F 0.343 0.036 o 691 0.08 Yes No
2014UM175 O C 2014-10-31.19137 1.000E-05 02:32:14.430 1.500E-01 0.500 F -0.361 -0.427 +17° 48' 36.80" 1.000E-01 0.500 F 0.295 -0.073 o 691 0.88 Yes No
2011VQ5 O C 2014-10-31.19658 1.000E-05 02:17:00.050 1.500E-01 0.500 F -0.338 -1.083 +16° 14' 48.40" 1.000E-01 0.500 F 0.343 0.093 o 691 2.18 Yes No
2014UM175 O C 2014-10-31.20914 1.000E-05 02:32:17.120 1.500E-01 0.500 F -0.361 -0.420 +17° 46' 37.70" 1.000E-01 0.500 F 0.295 -0.202 o 691 0.95 Yes No
2011VQ5 O C 2014-10-31.21434 1.000E-05 02:16:58.400 1.500E-01 0.500 F -0.338 0.069 +16° 14' 52.90" 1.000E-01 0.500 F 0.343 0.089 o 691 0.23 Yes No
2014SZ261 O C 2014-11-01.16526 1.000E-05 02:13:50.860 1.500E-01 0.500 F -0.297 -0.380 +14° 41' 59.00" 1.000E-01 0.500 F 0.229 -0.196 o 691 0.86 Yes No
2014SZ261 O C 2014-11-01.18560 1.000E-05 02:13:51.760 1.500E-01 0.500 F -0.297 -0.373 +14° 41' 28.00" 1.000E-01 0.500 F 0.229 0.112 o 691 0.79 Yes No
2014SZ261 O C 2014-11-01.20596 1.000E-05 02:13:52.570 1.500E-01 0.500 F -0.297 -1.414 +14° 40' 55.50" 1.000E-01 0.500 F 0.229 -0.960 o 691 3.40 No No
1991JG1 O C 2014-11-03.33440 1.000E-05 04:09:30.080 1.500E-01 0.500 F -0.297 -0.163 +16° 17' 54.90" 1.000E-01 0.500 F 0.142 0.099 o 691 0.38 Yes No
1991JG1 O C 2014-11-03.35824 1.000E-05 04:09:27.740 1.500E-01 0.500 F -0.297 -0.145 +16° 16' 44.40" 1.000E-01 0.500 F 0.142 0.256 o 691 0.59 Yes No
1991JG1 O C 2014-11-03.37861 1.000E-05 04:09:25.730 1.500E-01 0.500 F -0.297 -0.250 +16° 15' 43.60" 1.000E-01 0.500 F 0.142 -0.083 o 691 0.53 Yes No
Ivar O C 2014-11-03.46626 1.000E-05 09:52:00.170 1.500E-01 0.500 F 0.151 -0.294 +11° 38' 03.70" 1.000E-01 0.500 F 0.116 -0.060 o 691 0.60 Yes No
Ivar O C 2014-11-03.47902 1.000E-05 09:52:00.940 1.500E-01 0.500 F 0.151 -0.323 +11° 38' 00.50" 1.000E-01 0.500 F 0.116 -0.123 o 691 0.69 Yes No
Ivar O C 2014-11-03.49180 1.000E-05 09:52:01.710 1.500E-01 0.500 F 0.151 -0.356 +11° 37' 57.50" 1.000E-01 0.500 F 0.116 0.021 o 691 0.71 Yes No
1991JG1 O C 2014-11-04.35031 1.000E-05 04:07:54.380 1.500E-01 0.500 F -0.247 -0.269 +15° 27' 14.10" 1.000E-01 0.500 F 0.126 0.187 o 691 0.66 Yes No
1991JG1 O C 2014-11-04.37106 1.000E-05 04:07:52.280 1.500E-01 0.500 F -0.247 -0.262 +15° 26' 11.40" 1.000E-01 0.500 F 0.126 0.169 o 691 0.63 Yes No
1991JG1 O C 2014-11-04.38626 1.000E-05 04:07:50.740 1.500E-01 0.500 F -0.247 -0.277 +15° 25' 25.00" 1.000E-01 0.500 F 0.126 -0.263 o 691 0.77 Yes No
1998NU O C 2014-11-11.07329 1.000E-05 01:22:59.120 1.500E-01 0.500 F -0.253 -0.127 +13° 29' 54.70" 1.000E-01 0.500 F 0.273 -0.009 o 691 0.25 Yes No
1998OH O C 2014-11-11.08930 1.000E-05 01:31:16.380 1.500E-01 0.500 F -0.384 -0.091 +12° 59' 09.40" 1.000E-01 0.500 F 0.243 0.035 o 691 0.19 Yes No
1998NU O C 2014-11-11.10806 1.000E-05 01:22:56.970 1.500E-01 0.500 F -0.253 0.089 +13° 29' 40.60" 1.000E-01 0.500 F 0.273 -0.120 o 691 0.30 Yes No
1998OH O C 2014-11-11.13325 1.000E-05 01:31:12.830 1.500E-01 0.500 F -0.305 -0.123 +12° 58' 06.60" 1.000E-01 0.500 F 0.324 -0.047 o 691 0.26 Yes No
1998NU O C 2014-11-11.15200 1.000E-05 01:22:54.210 1.500E-01 0.500 F -0.253 -0.078 +13° 29' 22.90" 1.000E-01 0.500 F 0.273 -0.089 o 691 0.24 Yes No
1998OH O C 2014-11-11.16803 1.000E-05 01:31:10.010 1.500E-01 0.500 F -0.305 -0.031 +12° 57' 16.70" 1.000E-01 0.500 F 0.324 -0.187 o 691 0.38 Yes No
2011VQ5 O C 2014-11-18.07971 1.000E-05 01:47:35.890 1.500E-01 0.500 F -0.355 -0.360 +17° 26' 55.10" 1.000E-01 0.500 F 0.282 0.198 20.4 V 0.70 -0.16 o 691 0.82 Yes Yes
2011VQ5 O C 2014-11-18.10652 1.000E-05 01:47:33.240 1.500E-01 0.500 F -0.355 -0.337 +17° 27' 02.50" 1.000E-01 0.500 F 0.282 0.168 20.8 V 0.70 0.24 o 691 0.75 Yes Yes
2011VQ5 O C 2014-11-18.13670 1.000E-05 01:47:30.220 1.500E-01 0.500 F -0.355 -0.523 +17° 27' 10.40" 1.000E-01 0.500 F 0.282 -0.190 20.4 V 0.70 -0.16 o 691 1.12 Yes Yes
2011XZ1 O C 2014-11-18.30496 1.000E-05 05:15:36.750 1.500E-01 0.500 F -0.245 -0.288 +27° 58' 39.10" 1.000E-01 0.500 F 0.251 -0.138 20.7 V 0.70 0.06 o 691 0.64 Yes Yes
2014WO7 O C 2014-11-18.30496 1.000E-05 05:12:27.780 1.500E-01 0.500 F -0.162 -0.454 +26° 59' 45.30" 1.000E-01 0.500 F 0.186 -0.266 19.7 V 0.70 0.07 o 691 1.06 Yes Yes
2011XZ1 O C 2014-11-18.31836 1.000E-05 05:15:35.540 1.500E-01 0.500 F -0.245 -0.549 +27° 58' 36.30" 1.000E-01 0.500 F 0.251 0.038 20.7 V 0.70 0.06 o 691 1.10 Yes Yes
2014WO7 O C 2014-11-18.31836 1.000E-05 05:12:26.820 1.500E-01 0.500 F -0.162 -0.055 +26° 59' 04.00" 1.000E-01 0.500 F 0.186 0.079 19.8 V 0.70 0.17 o 691 0.19 Yes Yes
2011XZ1 O C 2014-11-18.32863 1.000E-05 05:15:34.690 1.500E-01 0.500 F -0.245 0.287 +27° 58' 35.80" 1.000E-01 0.500 F 0.251 1.833 20.2 V 0.70 -0.44 o 691 3.71 No Yes
2014WO7 O C 2014-11-18.32863 1.000E-05 05:12:26.190 1.500E-01 0.500 F -0.162 1.708 +26° 58' 32.70" 1.000E-01 0.500 F 0.186 0.763 19.4 V 0.70 -0.23 o 691 3.73 No Yes
2010AG79 O C 2014-11-20.11063 1.000E-05 01:47:46.280 1.500E-01 0.500 F -0.233 -0.160 +16° 40' 06.00" 1.000E-01 0.500 F 0.323 0.053 18.7 V 0.70 0.05 o 691 0.34 Yes Yes
2010AG79 O C 2014-11-20.13780 1.000E-05 01:47:39.390 1.500E-01 0.500 F -0.233 -0.181 +16° 43' 23.80" 1.000E-01 0.500 F 0.323 -0.027 18.7 V 0.70 0.04 o 691 0.37 Yes Yes
2010AG79 O C 2014-11-20.16497 1.000E-05 01:47:32.460 1.500E-01 0.500 F -0.233 -0.378 +16° 46' 41.00" 1.000E-01 0.500 F 0.323 -0.438 18.2 V 0.70 -0.46 o 691 1.16 Yes Yes
Nefertiti O C 2014-11-23.50304 1.000E-05 12:08:20.140 1.500E-01 0.500 F 0.226 -0.079 +08° 52' 11.10" 1.000E-01 0.500 F 0.153 -0.131 18.9 V 0.70 0.42 o 691 0.31 Yes Yes
Nefertiti O C 2014-11-23.51570 1.000E-05 12:08:21.190 1.500E-01 0.500 F 0.226 -0.477 +08° 51' 55.80" 1.000E-01 0.500 F 0.153 -0.019 19.0 V 0.70 0.52 o 691 0.96 Yes Yes
Nefertiti O C 2014-11-23.52839 1.000E-05 12:08:22.290 1.500E-01 0.500 F 0.226 -0.150 +08° 51' 40.30" 1.000E-01 0.500 F 0.153 -0.068 18.9 V 0.70 0.42 o 691 0.33 Yes Yes
2007AG O C H 2014-11-24.47163 1.000E-05 11:48:20.330 1.500E-01 0.500 F 0.154 -0.277 +13° 32' 50.40" 1.000E-01 0.500 F 0.204 -0.306 21.0 V 0.70 0.14 o 691 0.83 Yes Yes
2007AG O C H 2014-11-24.48432 1.000E-05 11:48:20.810 1.500E-01 0.500 F 0.154 -0.015 +13° 32' 29.70" 1.000E-01 0.500 F 0.204 -1.229 20.9 V 0.70 0.04 o 691 2.46 Yes Yes
2007AG O C H 2014-11-24.49703 1.000E-05 11:48:21.240 1.500E-01 0.500 F 0.154 -0.393 +13° 32' 11.30" 1.000E-01 0.500 F 0.204 0.206 20.9 V 0.70 0.04 o 691 0.89 Yes Yes
2011PT O C 2014-11-25.19762 1.000E-05 03:47:05.190 1.500E-01 0.500 F -0.211 -0.643 +16° 41' 07.70" 1.000E-01 0.500 F 0.268 -0.171 20.1 V 0.70 0.06 o 691 1.34 Yes Yes
2011PT O C 2014-11-25.21537 1.000E-05 03:47:04.770 1.500E-01 0.500 F -0.211 0.211 +16° 41' 33.10" 1.000E-01 0.500 F 0.268 -0.927 19.8 V 0.70 -0.24 o 691 1.91 Yes Yes
2011PT O C 2014-11-25.23311 1.000E-05 03:47:04.240 1.500E-01 0.500 F -0.211 -0.176 +16° 42' 00.10" 1.000E-01 0.500 F 0.268 0.149 20.6 V 0.70 0.56 o 691 0.46 Yes Yes
1990TG1 O C 2014-11-26.20205 1.000E-05 03:49:42.760 1.500E-01 0.500 F -0.313 -0.262 +13° 22' 39.30" 1.000E-01 0.500 F 0.254 -0.391 20.5 V 0.70 0.03 o 691 0.94 Yes Yes
1990TG1 O C 2014-11-26.22241 1.000E-05 03:49:41.610 1.500E-01 0.500 F -0.313 -0.335 +13° 22' 35.90" 1.000E-01 0.500 F 0.254 0.370 20.2 V 0.70 -0.27 o 691 1.00 Yes Yes
1990TG1 O C 2014-11-26.24273 1.000E-05 03:49:40.470 1.500E-01 0.500 F -0.313 -0.279 +13° 22' 31.40" 1.000E-01 0.500 F 0.254 0.030 20.4 V 0.70 -0.07 o 691 0.56 Yes Yes
2014UB192 O C 2014-11-27.19282 1.000E-05 03:58:49.270 1.500E-01 0.500 F -0.097 0.187 +26° 29' 48.50" 1.000E-01 0.500 F 0.264 -0.086 21.0 V 0.70 0.42 o 691 0.42 Yes Yes
2014UB192 O C 2014-11-27.21321 1.000E-05 03:58:49.620 1.500E-01 0.500 F -0.097 -0.235 +26° 30' 48.60" 1.000E-01 0.500 F 0.264 0.240 21.1 V 0.70 0.52 o 691 0.68 Yes Yes
2014UB192 O C 2014-11-27.23360 1.000E-05 03:58:49.990 1.500E-01 0.500 F -0.097 -0.138 +26° 31' 47.90" 1.000E-01 0.500 F 0.264 -0.013 21.2 V 0.70 0.62 o 691 0.28 Yes Yes
2014WO7 O C 2014-11-28.32707 1.000E-05 04:57:26.380 1.500E-01 0.500 F -0.166 -0.148 +15° 45' 24.00" 1.000E-01 0.500 F 0.187 0.036 19.0 V 0.70 0.29 o 691 0.31 Yes Yes
2014WO7 O C 2014-11-28.34742 1.000E-05 04:57:23.780 1.500E-01 0.500 F -0.166 -0.403 +15° 43' 41.50" 1.000E-01 0.500 F 0.187 -0.213 18.9 V 0.70 0.19 o 691 0.92 Yes Yes
2014WO7 O C 2014-11-28.36775 1.000E-05 04:57:21.220 1.500E-01 0.500 F -0.166 -0.136 +15° 41' 59.30" 1.000E-01 0.500 F 0.187 -0.054 19.0 V 0.70 0.30 o 691 0.29 Yes Yes
2014WD6 O C 2014-11-29.11859 1.000E-05 03:29:16.240 1.500E-01 0.500 F -0.221 1.138 +18° 44' 09.70" 1.000E-01 0.500 F 0.364 -1.481 19.2 V 0.70 -0.09 o 691 3.53 No Yes
2014WD6 O C 2014-11-29.13892 1.000E-05 03:29:13.920 1.500E-01 0.500 F -0.221 -0.001 +18° 47' 12.40" 1.000E-01 0.500 F 0.364 -0.185 19.3 V 0.70 0.01 o 691 0.40 Yes Yes
2014WD6 O C 2014-11-29.15927 1.000E-05 03:29:11.640 1.500E-01 0.500 F -0.221 -0.031 +18° 50' 13.90" 1.000E-01 0.500 F 0.364 -0.060 19.5 V 0.70 0.21 o 691 0.14 Yes Yes
2006UP O C 2014-11-29.26162 1.000E-05 04:45:40.420 1.500E-01 0.500 F -0.128 -0.320 +26° 55' 43.20" 1.000E-01 0.500 F 0.306 -0.042 21.3 V 0.70 0.85 o 691 0.65 Yes Yes
2006UP O C 2014-11-29.27943 1.000E-05 04:45:39.590 1.500E-01 0.500 F -0.128 -0.207 +26° 55' 51.40" 1.000E-01 0.500 F 0.306 0.100 21.3 V 0.70 0.85 o 691 0.46 Yes Yes
2006UP O C 2014-11-29.29736 1.000E-05 04:45:38.720 1.500E-01 0.500 F -0.128 -0.437 +26° 55' 59.30" 1.000E-01 0.500 F 0.306 0.100 21.2 V 0.70 0.75 o 691 0.90 Yes Yes
2000SQ43 O C 2014-11-29.31989 1.000E-05 04:08:27.980 1.500E-01 0.500 F -0.219 -0.330 +11° 13' 27.10" 1.000E-01 0.500 F 0.082 0.115 21.0 V 0.70 0.41 o 691 0.70 Yes Yes
2000SQ43 O C 2014-11-29.33765 1.000E-05 04:08:26.510 1.500E-01 0.500 F -0.219 -0.154 +11° 13' 24.60" 1.000E-01 0.500 F 0.082 0.241 20.8 V 0.70 0.21 o 691 0.58 Yes Yes
2000SQ43 O C 2014-11-29.35539 1.000E-05 04:08:25.050 1.500E-01 0.500 F -0.219 0.115 +11° 13' 21.60" 1.000E-01 0.500 F 0.082 -0.123 20.8 V 0.70 0.21 o 691 0.34 Yes Yes
1990TG1 O C 2014-11-30.12986 1.000E-05 03:46:07.290 1.500E-01 0.500 F -0.313 -0.344 +13° 09' 27.60" 1.000E-01 0.500 F 0.254 -0.259 20.9 V 0.70 0.36 o 691 0.86 Yes Yes
1990TG1 O C 2014-11-30.15018 1.000E-05 03:46:06.170 1.500E-01 0.500 F -0.313 -0.384 +13° 09' 23.70" 1.000E-01 0.500 F 0.254 -0.214 20.7 V 0.70 0.16 o 691 0.88 Yes Yes
1990TG1 O C 2014-11-30.17052 1.000E-05 03:46:05.060 1.500E-01 0.500 F -0.313 -0.236 +13° 09' 20.30" 1.000E-01 0.500 F 0.254 0.341 20.6 V 0.70 0.06 o 691 0.83 Yes Yes
Mithra O C 2014-11-30.18299 1.000E-05 03:52:30.160 1.500E-01 0.500 F -0.027 -0.318 +18° 44' 08.90" 1.000E-01 0.500 F 0.197 0.100 20.5 V 0.70 -0.10 o 691 0.67 Yes Yes
Mithra O C 2014-11-30.20331 1.000E-05 03:52:28.810 1.500E-01 0.500 F -0.027 -0.306 +18° 44' 05.20" 1.000E-01 0.500 F 0.197 -0.160 20.8 V 0.70 0.20 o 691 0.69 Yes Yes
Mithra O C 2014-11-30.22365 1.000E-05 03:52:27.450 1.500E-01 0.500 F -0.027 -0.397 +18° 44' 02.00" 1.000E-01 0.500 F 0.197 0.097 20.7 V 0.70 0.10 o 691 0.82 Yes Yes
2000SQ43 O C 2014-11-30.32278 1.000E-05 04:07:07.920 1.500E-01 0.500 F -0.219 -0.051 +11° 11' 05.50" 1.000E-01 0.500 F 0.082 -0.115 20.6 V 0.70 -0.03 o 691 0.25 Yes Yes
2000SQ43 O C 2014-11-30.34312 1.000E-05 04:07:06.230 1.500E-01 0.500 F -0.219 -0.377 +11° 11' 02.50" 1.000E-01 0.500 F 0.082 -0.306 20.6 V 0.70 -0.03 o 691 0.98 Yes Yes
2000SQ43 O C 2014-11-30.36346 1.000E-05 04:07:04.600 1.500E-01 0.500 F -0.219 0.134 +11° 11' 00.40" 1.000E-01 0.500 F 0.082 0.420 20.5 V 0.70 -0.13 o 691 0.89 Yes Yes
1998XS16 O C 2014-11-30.44451 1.000E-05 07:34:27.380 1.500E-01 0.612 F -0.086 0.184 +25° 08' 54.60" 1.000E-01 0.612 F 0.202 0.147 19.6 V 0.70 0.93 o 691 0.38 Yes Yes
1998XS16 O C 2014-11-30.45474 1.000E-05 07:34:26.360 1.500E-01 0.612 F -0.086 -0.167 +25° 08' 48.70" 1.000E-01 0.612 F 0.202 -0.027 18.7 V 0.70 0.03 o 691 0.28 Yes Yes
1998XS16 O C 2014-11-30.46494 1.000E-05 07:34:25.380 1.500E-01 0.612 F -0.086 -0.013 +25° 08' 42.90" 1.000E-01 0.612 F 0.202 -0.103 18.8 V 0.70 0.13 o 691 0.17 Yes Yes
1998XS16 O C 2014-11-30.47861 1.000E-05 07:34:24.040 1.500E-01 0.612 F -0.086 -0.167 +25° 08' 35.20" 1.000E-01 0.612 F 0.202 -0.109 18.7 V 0.70 0.03 o 691 0.33 Yes Yes
1998XS16 O C 2014-11-30.48881 1.000E-05 07:34:23.050 1.500E-01 0.612 F -0.086 -0.153 +25° 08' 29.20" 1.000E-01 0.612 F 0.202 -0.352 19.0 V 0.70 0.33 o 691 0.63 Yes Yes
1998XS16 O C 2014-11-30.49900 1.000E-05 07:34:22.070 1.500E-01 0.612 F -0.086 -0.020 +25° 08' 23.60" 1.000E-01 0.612 F 0.202 -0.187 19.3 V 0.70 0.63 o 691 0.31 Yes Yes
2014WO7 O C 2014-12-01.37675 1.000E-05 04:51:15.470 1.500E-01 0.500 F -0.097 -0.344 +11° 14' 37.00" 1.000E-01 0.500 F 0.169 -0.258 18.8 V 0.70 0.23 o 691 0.86 Yes Yes
2014WO7 O C 2014-12-01.39708 1.000E-05 04:51:12.650 1.500E-01 0.500 F -0.097 -0.112 +11° 12' 42.30" 1.000E-01 0.500 F 0.169 -0.175 18.8 V 0.70 0.23 o 691 0.42 Yes Yes
2014WO7 O C 2014-12-01.41738 1.000E-05 04:51:09.840 1.500E-01 0.500 F -0.097 -0.001 +11° 10' 47.80" 1.000E-01 0.500 F 0.169 0.099 18.7 V 0.70 0.13 o 691 0.20 Yes Yes
2014UH56 O C 2014-12-10.08300 1.000E-05 03:13:22.240 1.500E-01 0.500 F -0.250 -0.551 +21° 16' 40.70" 1.000E-01 0.500 F 0.248 0.227 20.6 V 0.70 -0.06 o 691 1.20 Yes Yes
2014UH56 O C 2014-12-10.16801 1.000E-05 03:13:21.020 1.500E-01 0.500 F -0.250 0.103 +21° 18' 02.00" 1.000E-01 0.500 F 0.248 0.145 20.6 V 0.70 -0.06 o 691 0.36 Yes Yes
2014UH56 O C 2014-12-10.25317 1.000E-05 03:13:19.650 1.500E-01 0.500 F -0.250 -0.106 +21° 19' 21.20" 1.000E-01 0.500 F 0.248 -0.562 20.5 V 0.70 -0.17 o 691 1.15 Yes Yes
Beltrovata O C 2014-12-10.33460 1.000E-05 07:11:43.260 1.500E-01 0.500 F -0.095 -0.215 +24° 25' 32.50" 1.000E-01 0.500 F 0.260 -0.069 18.4 V 0.70 0.14 o 691 0.45 Yes Yes
1998XS16 O C 2014-12-10.33460 1.000E-05 07:15:43.390 1.500E-01 0.500 F -0.071 -0.282 +23° 27' 36.30" 1.000E-01 0.500 F 0.254 0.192 18.9 V 0.70 0.61 o 691 0.68 Yes Yes
Beltrovata O C 2014-12-10.35235 1.000E-05 07:11:41.910 1.500E-01 0.500 F -0.095 -0.155 +24° 25' 32.80" 1.000E-01 0.500 F 0.260 -0.059 18.4 V 0.70 0.14 o 691 0.33 Yes Yes
1998XS16 O C 2014-12-10.35235 1.000E-05 07:15:40.970 1.500E-01 0.500 F -0.071 -0.210 +23° 27' 23.90" 1.000E-01 0.500 F 0.254 -0.281 18.9 V 0.70 0.61 o 691 0.70 Yes Yes
Beltrovata O C 2014-12-10.36754 1.000E-05 07:11:40.750 1.500E-01 0.500 F -0.095 -0.148 +24° 25' 33.00" 1.000E-01 0.500 F 0.260 -0.086 18.5 V 0.70 0.24 o 691 0.34 Yes Yes
1998XS16 O C 2014-12-10.36754 1.000E-05 07:15:38.890 1.500E-01 0.500 F -0.071 -0.238 +23° 27' 13.90" 1.000E-01 0.500 F 0.254 -0.040 18.6 V 0.70 0.32 o 691 0.48 Yes Yes
2001MZ7 O C 2014-12-10.49623 1.000E-05 13:38:29.170 1.500E-01 0.500 F 0.197 -0.132 +01° 37' 45.40" 1.000E-01 0.500 F 0.129 0.034 17.9 V 0.70 -0.06 o 691 0.27 Yes Yes
2001MZ7 O C 2014-12-10.50890 1.000E-05 13:38:31.820 1.500E-01 0.500 F 0.197 -0.129 +01° 37' 42.40" 1.000E-01 0.500 F 0.129 0.078 17.8 V 0.70 -0.16 o 691 0.30 Yes Yes
2001MZ7 O C 2014-12-10.52156 1.000E-05 13:38:34.450 1.500E-01 0.500 F 0.197 -0.368 +01° 37' 39.30" 1.000E-01 0.500 F 0.129 0.019 17.8 V 0.70 -0.16 o 691 0.74 Yes Yes
2001YJ4 O C H 2014-12-11.12599 1.000E-05 02:56:41.500 1.500E-01 0.500 F -0.264 -0.521 +19° 25' 04.10" 1.000E-01 0.500 F 0.245 -0.552 21.1 V 0.70 -0.13 o 691 1.52 Yes Yes
2001YJ4 O C H 2014-12-11.15332 1.000E-05 02:56:40.080 1.500E-01 0.500 F -0.264 0.033 +19° 24' 55.20" 1.000E-01 0.500 F 0.245 0.101 21.2 V 0.70 -0.03 o 691 0.21 Yes Yes
2009XO O C 2014-12-11.19698 1.000E-05 03:52:32.580 1.500E-01 0.500 F -0.156 -0.199 +21° 06' 09.80" 1.000E-01 0.500 F 0.156 0.137 o 691 0.48 Yes No
2009XO O C 2014-12-11.22087 1.000E-05 03:52:28.610 1.500E-01 0.500 F -0.156 -0.104 +21° 05' 59.90" 1.000E-01 0.500 F 0.156 -0.025 o 691 0.21 Yes No
2009XO O C 2014-12-11.24477 1.000E-05 03:52:24.620 1.500E-01 0.500 F -0.156 -0.171 +21° 05' 49.90" 1.000E-01 0.500 F 0.156 -0.125 o 691 0.42 Yes No
1998XS16 O C 2014-12-11.33760 1.000E-05 07:13:28.140 1.500E-01 0.500 F -0.071 -1.167 +23° 16' 06.40" 1.000E-01 0.500 F 0.254 -2.374 o 691 5.28 No No
1998XS16 O C 2014-12-11.35796 1.000E-05 07:13:25.340 1.500E-01 0.500 F -0.071 -0.383 +23° 15' 54.70" 1.000E-01 0.500 F 0.254 -0.082 o 691 0.78 Yes No
1998XS16 O C 2014-12-11.37317 1.000E-05 07:13:23.210 1.500E-01 0.500 F -0.071 -0.292 +23° 15' 44.30" 1.000E-01 0.500 F 0.254 0.010 o 691 0.59 Yes No

[1-200] [201-400] [401-600] [601-800] [801-1000] [1001-1200] [1201-1400] [1401-1600] [1601-1800] [1801-2000] [2001-2200] [2201-2400] [2401-2600] [2601-2800] [2801-3000] [3001-3200] [3201-3400] [3401-3600] [3601-3800] [3801-4000] [4001-4200] [4201-4400] [4401-4600] [4601-4800] [4801-5000] [5001-5200] [5201-5400] [5401-5600] [5601-5800] [5801-6000] [6001-6200] [6201-6400] [6401-6600] [6601-6800] [6801-7000] [7001-7200] [7201-7400] [7401-7600] [7601-7800] [7801-8000] [8001-8200] [8201-8400] [8401-8600] [8601-8800] [8801-9000] [9001-9200] [9201-9400] [9401-9600] [9601-9800] [9801-10000] [10001-10200] [10201-10400] [10401-10600] [10601-10800] [10801-11000] [11001-11200] [11201-11400] [11401-11600] [11601-11800] [11801-12000] [12001-12200] [12201-12400] [12401-12600] [12601-12800] [12801-13000] [13001-13200] [13201-13400] [13401-13600] [13601-13800] [13801-14000] [14001-14200] [14201-14400] [14401-14600] [14601-14800] [14801-15000] [15001-15200] [15201-15400] [15401-15600] [15601-15800] [15801-16000] [16001-16200] [16201-16400] [16401-16600] [16601-16800] [16801-17000] [17001-17200] [17201-17400] [17401-17600] [17601-17800] [17801-18000] [18001-18200] [18201-18400] [18401-18600] [18601-18800] [18801-19000] [19001-19200] [19201-19400] [19401-19600] [19601-19800] [19801-20000] [20001-20200] [20201-20400] [20401-20600] [20601-20800] [20801-21000] [21001-21200] [21201-21400] [21401-21600] [21601-21800] [21801-22000] [22001-22200] [22201-22400] [22401-22600] [22601-22800] [22801-23000] [23001-23200] [23201-23400] [23401-23600] [23601-23800] [23801-24000] [24001-24200] [24201-24400] [24401-24600] [24601-24800] [24801-25000] [25001-25200] [25201-25400] [25401-25600] [25601-25800] [25801-26000] [26001-26200] [26201-26400] [26401-26600] [26601-26800] [26801-27000] [27001-27200] [27201-27400] [27401-27600] [27601-27800] [27801-28000] [28001-28200] [28201-28400] [28401-28600] [28601-28800] [28801-29000] [29001-29200] [29201-29400] [29401-29600] [29601-29800] [29801-30000] [30001-30200] [30201-30400] [30401-30600] [30601-30800] [30801-31000] [31001-31200] [31201-31400] [31401-31600] [31601-31800] [31801-32000] [32001-32200] [32201-32400] [32401-32600] [32601-32800] [32801-33000] [33001-33200] [33201-33400] [33401-33600] [33601-33800] [33801-34000] [34001-34200] [34201-34400] [34401-34600] [34601-34800] [34801-35000] [35001-35200] [35201-35400] [35401-35600] [35601-35800] [35801-36000] [36001-36200] [36201-36400] [36401-36600] [36601-36800] [36801-37000] [37001-37200] [37201-37400] [37401-37600] [37601-37800] [37801-38000] [38001-38200] [38201-38400] [38401-38600] [38601-38800] [38801-39000] [39001-39200] [39201-39400] [39401-39600] [39601-39800] [39801-40000] [40001-40200] [40201-40400] [40401-40600] [40601-40800] [40801-41000] [41001-41200] [41201-41400] [41401-41600] [41601-41800] [41801-42000] [42001-42200] [42201-42400] [42401-42600] [42601-42800] [42801-43000] [43001-43200] [43201-43400] [43401-43600] [43601-43800] [43801-44000] [44001-44200] [44201-44400] [44401-44600] [44601-44800] [44801-45000] [45001-45200] [45201-45400] [45401-45600] [45601-45800] [45801-46000] [46001-46200] [46201-46400] [46401-46600] [46601-46800] [46801-47000] [47001-47200] [47201-47400] [47401-47600] [47601-47800] [47801-48000] [48001-48200] [48201-48400] [48401-48600] [48601-48800] [48801-49000] [49001-49200] [49201-49400] [49401-49600] [49601-49800] [49801-50000] [50001-50200] [50201-50388]